Time;durP1;ratioP1;P1;durP2;ratioP2;P2;SDS_P1;SDS_P2;PMS_P1;PMS_P2;Temp;Humidity;BMP_temperature;BMP_pressure;BME280_temperature;BME280_humidity;BME280_pressure;Samples;Min_cycle;Max_cycle;Signal;HPM_P1;HPM_P2
2023/09/22 00:00:01;;;;;;;62.10;18.02;;;;;;;;;;5139569;27;20395;-89
2023/09/22 00:02:27;;;;;;;56.50;17.50;;;;;;;;;;5140640;27;20054;-87
2023/09/22 00:04:53;;;;;;;60.90;19.10;;;;;;;;;;5138624;27;20046;-87
2023/09/22 00:07:19;;;;;;;59.50;19.25;;;;;;;;;;5139346;27;20043;-88
2023/09/22 00:09:45;;;;;;;61.70;18.77;;;;;;;;;;5139174;27;20043;-87
2023/09/22 00:12:11;;;;;;;58.80;19.52;;;;;;;;;;5120261;27;20050;-86
2023/09/22 00:14:37;;;;;;;53.67;17.52;;;;;;;;;;5123461;27;20039;-87
2023/09/22 00:17:04;;;;;;;55.03;18.43;;;;;;;;;;5121439;27;20050;-88
2023/09/22 00:19:31;;;;;;;52.15;17.95;;;;;;;;;;5139474;27;20059;-85
2023/09/22 00:21:57;;;;;;;55.72;17.48;;;;;;;;;;5136739;27;20259;-84
2023/09/22 00:24:23;;;;;;;53.67;18.27;;;;;;;;;;5137960;27;20043;-87
2023/09/22 00:26:49;;;;;;;57.13;18.70;;;;;;;;;;5139914;27;20039;-86
2023/09/22 00:29:15;;;;;;;57.80;18.08;;;;;;;;;;5140673;27;20795;-85
2023/09/22 00:31:42;;;;;;;64.07;19.27;;;;;;;;;;5125385;27;20043;-82
2023/09/22 00:34:08;;;;;;;53.30;17.88;;;;;;;;;;5141125;27;20043;-85
2023/09/22 00:36:34;;;;;;;54.60;17.85;;;;;;;;;;5123189;27;20429;-85
2023/09/22 00:39:00;;;;;;;60.58;18.60;;;;;;;;;;5139132;27;20051;-85
2023/09/22 00:41:26;;;;;;;59.08;18.38;;;;;;;;;;5121740;27;20046;-85
2023/09/22 00:43:52;;;;;;;55.30;18.50;;;;;;;;;;5119543;27;20131;-85
2023/09/22 00:46:23;;;;;;;57.23;18.17;;;;;;;;;;5103222;27;20047;-84
2023/09/22 00:48:49;;;;;;;58.08;18.38;;;;;;;;;;5139348;27;20051;-87
2023/09/22 00:51:19;;;;;;;58.30;17.70;;;;;;;;;;5121510;27;20042;-87
2023/09/22 00:53:46;;;;;;;55.33;18.20;;;;;;;;;;5119667;27;20054;-86
2023/09/22 00:56:13;;;;;;;54.75;17.80;;;;;;;;;;5140545;27;20039;-83
2023/09/22 00:58:39;;;;;;;53.22;17.67;;;;;;;;;;5137029;27;20040;-85
2023/09/22 01:01:05;;;;;;;56.35;18.30;;;;;;;;;;5138634;27;20082;-83
2023/09/22 01:03:31;;;;;;;53.60;17.65;;;;;;;;;;5118694;27;20483;-83
2023/09/22 01:05:57;;;;;;;56.07;18.23;;;;;;;;;;5135734;27;20046;-83
2023/09/22 01:08:23;;;;;;;59.25;19.33;;;;;;;;;;5119024;27;20368;-86
2023/09/22 01:10:49;;;;;;;61.37;20.07;;;;;;;;;;5117753;27;20072;-87
2023/09/22 01:13:15;;;;;;;62.40;19.47;;;;;;;;;;5118633;27;20100;-85
2023/09/22 01:15:45;;;;;;;59.53;18.35;;;;;;;;;;5118606;27;20051;-83
2023/09/22 01:18:14;;;;;;;62.72;19.75;;;;;;;;;;5120397;27;20047;-85
2023/09/22 01:20:42;;;;;;;59.33;18.50;;;;;;;;;;5139610;27;20047;-81
2023/09/22 01:23:08;;;;;;;59.83;19.00;;;;;;;;;;5122416;27;20050;-82
2023/09/22 01:25:36;;;;;;;61.28;19.58;;;;;;;;;;5119120;27;20047;-85
2023/09/22 01:28:02;;;;;;;66.68;19.40;;;;;;;;;;5101671;27;20150;-79
2023/09/22 01:30:29;;;;;;;70.03;20.92;;;;;;;;;;5135695;27;20042;-84
2023/09/22 01:32:55;;;;;;;59.38;19.50;;;;;;;;;;5118177;27;20043;-86
2023/09/22 01:35:21;;;;;;;65.80;19.92;;;;;;;;;;5137682;27;20043;-84
2023/09/22 01:37:55;;;;;;;59.17;18.83;;;;;;;;;;5119114;27;20058;-77
2023/09/22 01:40:21;;;;;;;71.45;20.75;;;;;;;;;;5136766;27;20418;-84
2023/09/22 01:42:47;;;;;;;61.72;20.88;;;;;;;;;;5136310;27;20129;-83
2023/09/22 01:45:14;;;;;;;66.37;20.77;;;;;;;;;;5100118;27;20139;-85
2023/09/22 01:47:40;;;;;;;68.80;20.90;;;;;;;;;;5135704;27;20833;-81
2023/09/22 01:50:07;;;;;;;66.75;20.88;;;;;;;;;;5135398;27;20050;-83
2023/09/22 01:52:33;;;;;;;69.22;19.48;;;;;;;;;;5120685;27;20050;-83
2023/09/22 01:54:59;;;;;;;58.38;17.55;;;;;;;;;;5140713;27;20047;-79
2023/09/22 01:57:25;;;;;;;62.75;20.00;;;;;;;;;;5118081;27;20066;-72
2023/09/22 01:59:52;;;;;;;60.33;18.07;;;;;;;;;;5135034;27;20050;-73
2023/09/22 02:02:18;;;;;;;61.65;17.55;;;;;;;;;;5135102;27;20051;-72
2023/09/22 02:04:44;;;;;;;55.03;18.07;;;;;;;;;;5135636;27;20047;-71
2023/09/22 02:07:10;;;;;;;55.60;17.92;;;;;;;;;;5117051;27;20114;-69
2023/09/22 02:09:36;;;;;;;65.73;20.17;;;;;;;;;;5134889;27;20074;-70
2023/09/22 02:12:02;;;;;;;57.85;18.63;;;;;;;;;;5134926;27;20047;-70
2023/09/22 02:14:28;;;;;;;66.28;18.88;;;;;;;;;;5116600;28;20039;-70
2023/09/22 02:16:54;;;;;;;65.22;18.35;;;;;;;;;;5134755;27;20047;-73
2023/09/22 02:19:20;;;;;;;63.30;18.17;;;;;;;;;;5134288;28;20055;-71
2023/09/22 02:21:47;;;;;;;66.77;19.73;;;;;;;;;;5134821;28;20125;-73
2023/09/22 02:24:13;;;;;;;65.60;19.70;;;;;;;;;;5134971;28;20449;-70
2023/09/22 02:26:39;;;;;;;65.95;19.67;;;;;;;;;;5116382;28;20051;-71
2023/09/22 02:29:05;;;;;;;70.22;19.73;;;;;;;;;;5135397;28;20039;-71
2023/09/22 02:31:32;;;;;;;65.03;19.50;;;;;;;;;;5116181;28;20046;-70
2023/09/22 02:33:58;;;;;;;;;;;;;;;;;;5135088;28;20291;-72
2023/09/22 02:36:24;;;;;;;68.82;19.63;;;;;;;;;;5134745;28;19919;-71
2023/09/22 02:38:50;;;;;;;75.03;20.83;;;;;;;;;;5134461;27;20126;-71
2023/09/22 02:41:17;;;;;;;73.25;20.42;;;;;;;;;;5137218;27;20043;-71
2023/09/22 02:43:43;;;;;;;;;;;;;;;;;;5104067;27;20047;-71
2023/09/22 02:46:09;;;;;;;78.45;21.88;;;;;;;;;;5138442;27;20018;-70
2023/09/22 02:48:35;;;;;;;72.05;21.70;;;;;;;;;;5138390;27;20047;-71
2023/09/22 02:51:05;;;;;;;77.10;22.48;;;;;;;;;;5138296;27;20086;-71
2023/09/22 02:53:31;;;;;;;72.55;21.60;;;;;;;;;;5104182;27;20383;-71
2023/09/22 02:55:58;;;;;;;74.82;20.00;;;;;;;;;;5121229;27;20414;-71
2023/09/22 02:58:24;;;;;;;75.05;21.02;;;;;;;;;;5138346;27;20047;-70
2023/09/22 03:00:50;;;;;;;63.88;20.58;;;;;;;;;;5104146;27;20130;-71
2023/09/22 03:03:16;;;;;;;64.93;19.40;;;;;;;;;;5119876;27;20043;-70
2023/09/22 03:05:42;;;;;;;58.53;16.97;;;;;;;;;;5119983;27;20139;-70
2023/09/22 03:08:08;;;;;;;60.78;17.35;;;;;;;;;;5138177;27;20054;-71
2023/09/22 03:10:34;;;;;;;55.45;15.43;;;;;;;;;;5138145;27;20058;-72
2023/09/22 03:13:01;;;;;;;48.53;14.15;;;;;;;;;;5138163;27;20051;-71
2023/09/22 03:15:27;;;;;;;59.53;16.17;;;;;;;;;;5139226;27;20043;-70
2023/09/22 03:17:53;;;;;;;53.22;15.13;;;;;;;;;;5124210;27;20043;-70
2023/09/22 03:20:19;;;;;;;52.75;14.00;;;;;;;;;;5140664;27;20043;-71
2023/09/22 03:22:46;;;;;;;54.55;15.45;;;;;;;;;;5120524;27;20475;-71
2023/09/22 03:25:12;;;;;;;45.60;13.73;;;;;;;;;;5138033;27;20086;-71
2023/09/22 03:27:39;;;;;;;52.63;14.32;;;;;;;;;;5102498;27;20390;-71
2023/09/22 03:30:06;;;;;;;52.17;14.88;;;;;;;;;;5119401;27;20368;-73
2023/09/22 03:32:32;;;;;;;49.08;14.45;;;;;;;;;;5137778;27;20082;-70
2023/09/22 03:34:59;;;;;;;55.50;15.85;;;;;;;;;;5137608;27;20155;-69
2023/09/22 03:37:29;;;;;;;60.10;15.63;;;;;;;;;;5119280;27;20054;-72
2023/09/22 03:39:56;;;;;;;63.85;18.08;;;;;;;;;;5137994;27;20083;-71
2023/09/22 03:42:23;;;;;;;65.13;17.13;;;;;;;;;;5137374;27;20089;-70
2023/09/22 03:44:49;;;;;;;71.55;20.02;;;;;;;;;;5119968;27;20054;-70
2023/09/22 03:47:15;;;;;;;69.47;18.98;;;;;;;;;;5118869;27;20174;-71
2023/09/22 03:49:41;;;;;;;81.95;20.95;;;;;;;;;;5137444;27;20035;-70
2023/09/22 03:52:07;;;;;;;76.93;20.58;;;;;;;;;;5101767;27;20062;-74
2023/09/22 03:54:34;;;;;;;79.32;20.23;;;;;;;;;;5137540;27;20108;-69
2023/09/22 03:57:00;;;;;;;80.50;21.05;;;;;;;;;;5119643;27;20096;-70
2023/09/22 03:59:27;;;;;;;80.60;20.25;;;;;;;;;;5102378;27;20092;-72
2023/09/22 04:01:54;;;;;;;78.72;20.67;;;;;;;;;;5137549;27;20455;-71
2023/09/22 04:04:20;;;;;;;93.10;24.08;;;;;;;;;;5119336;27;20058;-70
2023/09/22 04:06:46;;;;;;;93.30;23.80;;;;;;;;;;5119844;27;20082;-70
2023/09/22 04:09:12;;;;;;;97.03;23.20;;;;;;;;;;5137261;27;20383;-72
2023/09/22 04:11:38;;;;;;;96.00;23.53;;;;;;;;;;5101414;27;20292;-71
2023/09/22 04:14:04;;;;;;;98.90;24.53;;;;;;;;;;5136805;27;20051;-70
2023/09/22 04:16:30;;;;;;;101.28;24.20;;;;;;;;;;5118749;27;20047;-71
2023/09/22 04:18:56;;;;;;;91.82;22.48;;;;;;;;;;5137152;27;20055;-70
2023/09/22 04:21:23;;;;;;;86.67;23.07;;;;;;;;;;5136573;27;20060;-69
2023/09/22 04:23:57;;;;;;;116.05;28.38;;;;;;;;;;5137065;27;20157;-70
2023/09/22 04:26:27;;;;;;;106.85;26.33;;;;;;;;;;5136805;27;20475;-70
2023/09/22 04:28:55;;;;;;;122.65;27.50;;;;;;;;;;5136932;27;20043;-70
2023/09/22 04:31:23;;;;;;;119.20;27.10;;;;;;;;;;5118351;27;20054;-70
2023/09/22 04:33:49;;;;;;;119.30;27.33;;;;;;;;;;5136388;27;20073;-70
2023/09/22 04:36:15;;;;;;;115.07;27.95;;;;;;;;;;5136830;27;20046;-71
2023/09/22 04:38:44;;;;;;;125.37;27.87;;;;;;;;;;5136170;27;20126;-71
2023/09/22 04:41:10;;;;;;;128.02;28.80;;;;;;;;;;5136288;27;20388;-70
2023/09/22 04:43:36;;;;;;;127.65;29.40;;;;;;;;;;5136766;27;20411;-70
2023/09/22 04:46:03;;;;;;;121.07;27.87;;;;;;;;;;5136131;27;20439;-70
2023/09/22 04:48:29;;;;;;;135.77;30.10;;;;;;;;;;5117554;27;20144;-70
2023/09/22 04:50:55;;;;;;;121.28;27.65;;;;;;;;;;5135916;27;20040;-70
2023/09/22 04:53:21;;;;;;;116.32;27.98;;;;;;;;;;5118124;27;20051;-70
2023/09/22 04:55:48;;;;;;;130.73;29.67;;;;;;;;;;5117688;27;20099;-70
2023/09/22 04:58:14;;;;;;;128.40;29.92;;;;;;;;;;5135765;27;20518;-71
2023/09/22 05:00:41;;;;;;;124.60;29.43;;;;;;;;;;5118144;27;20149;-70
2023/09/22 05:03:07;;;;;;;126.70;28.25;;;;;;;;;;5134588;27;20284;-71
2023/09/22 05:05:33;;;;;;;135.53;30.33;;;;;;;;;;5117543;27;20152;-70
2023/09/22 05:08:00;;;;;;;135.23;31.08;;;;;;;;;;5135379;27;20039;-70
2023/09/22 05:10:27;;;;;;;132.10;28.35;;;;;;;;;;5135347;27;20130;-70
2023/09/22 05:12:54;;;;;;;133.40;29.55;;;;;;;;;;5135230;27;20051;-70
2023/09/22 05:15:20;;;;;;;136.20;30.25;;;;;;;;;;5116961;27;20376;-74
2023/09/22 05:17:46;;;;;;;135.65;29.67;;;;;;;;;;5117698;27;20054;-70
2023/09/22 05:20:16;;;;;;;149.50;31.03;;;;;;;;;;5134841;27;20051;-71
2023/09/22 05:22:42;;;;;;;131.82;26.92;;;;;;;;;;5117441;27;20285;-71
2023/09/22 05:25:09;;;;;;;129.43;27.80;;;;;;;;;;5116752;27;20474;-70
2023/09/22 05:27:35;;;;;;;131.02;27.30;;;;;;;;;;5134985;27;20126;-70
2023/09/22 05:30:03;;;;;;;140.03;28.50;;;;;;;;;;5117712;27;20417;-70
2023/09/22 05:32:29;;;;;;;117.05;25.80;;;;;;;;;;5135443;27;20058;-70
2023/09/22 05:34:56;;;;;;;129.17;26.50;;;;;;;;;;5135023;27;20051;-70
2023/09/22 05:37:23;;;;;;;112.53;25.63;;;;;;;;;;5134984;27;20074;-72
2023/09/22 05:39:49;;;;;;;125.77;26.60;;;;;;;;;;5134846;27;20047;-70
2023/09/22 05:42:15;;;;;;;117.78;24.73;;;;;;;;;;5117137;27;20051;-69
2023/09/22 05:44:43;;;;;;;111.85;22.65;;;;;;;;;;5135699;27;20372;-70
2023/09/22 05:47:09;;;;;;;108.47;22.50;;;;;;;;;;5136179;27;20068;-70
2023/09/22 05:49:35;;;;;;;101.78;22.80;;;;;;;;;;5135317;27;20382;-70
2023/09/22 05:52:03;;;;;;;89.53;20.55;;;;;;;;;;5135412;27;20134;-69
2023/09/22 05:54:29;;;;;;;95.80;21.40;;;;;;;;;;5135262;27;20054;-70
2023/09/22 05:56:56;;;;;;;91.53;20.60;;;;;;;;;;5134687;27;20047;-70
2023/09/22 05:59:24;;;;;;;96.40;20.73;;;;;;;;;;5134781;27;20043;-69
2023/09/22 06:01:50;;;;;;;88.43;19.80;;;;;;;;;;5116854;27;20054;-70
2023/09/22 06:04:16;;;;;;;98.75;22.40;;;;;;;;;;5134705;27;20046;-70
2023/09/22 06:06:45;;;;;;;94.38;21.08;;;;;;;;;;5134434;27;20046;-70
2023/09/22 06:09:12;;;;;;;92.20;20.52;;;;;;;;;;5116947;27;20043;-69
2023/09/22 06:11:38;;;;;;;81.53;19.67;;;;;;;;;;5134936;27;20043;-70
2023/09/22 06:14:07;;;;;;;86.85;19.85;;;;;;;;;;5134217;27;20080;-69
2023/09/22 06:16:33;;;;;;;92.72;21.20;;;;;;;;;;5134328;27;20039;-70
2023/09/22 06:19:00;;;;;;;86.85;20.58;;;;;;;;;;5115809;28;20102;-69
2023/09/22 06:21:29;;;;;;;81.57;21.00;;;;;;;;;;5134835;28;20474;-70
2023/09/22 06:23:56;;;;;;;85.88;20.20;;;;;;;;;;5099424;28;20063;-71
2023/09/22 06:26:22;;;;;;;73.53;20.40;;;;;;;;;;5134588;28;20066;-69
2023/09/22 06:28:48;;;;;;;87.63;20.08;;;;;;;;;;5116026;28;20039;-71
2023/09/22 06:31:14;;;;;;;71.45;18.60;;;;;;;;;;5099386;28;20062;-70
2023/09/22 06:33:40;;;;;;;77.18;18.58;;;;;;;;;;5134142;28;20038;-70
2023/09/22 06:36:06;;;;;;;77.13;18.10;;;;;;;;;;5134239;28;20047;-70
2023/09/22 06:38:33;;;;;;;69.55;17.92;;;;;;;;;;5134030;28;20078;-70
2023/09/22 06:41:03;;;;;;;62.78;16.60;;;;;;;;;;5115976;28;20416;-70
2023/09/22 06:43:30;;;;;;;66.78;16.95;;;;;;;;;;5115900;28;20047;-69
2023/09/22 06:45:58;;;;;;;72.30;16.38;;;;;;;;;;5133667;28;20051;-70
2023/09/22 06:48:28;;;;;;;72.50;16.92;;;;;;;;;;5133976;28;20547;-70
2023/09/22 06:50:58;;;;;;;66.38;17.35;;;;;;;;;;5134049;28;20122;-70
2023/09/22 06:53:26;;;;;;;66.05;16.25;;;;;;;;;;5134951;28;20454;-70
2023/09/22 06:56:14;;;;;;;66.60;16.23;;;;;;;;;;5115577;28;20039;-69
2023/09/22 06:58:41;;;;;;;67.55;16.85;;;;;;;;;;5134032;28;20048;-70
2023/09/22 07:01:11;;;;;;;57.72;15.63;;;;;;;;;;5098568;28;20051;-69
2023/09/22 07:03:41;;;;;;;58.20;17.23;;;;;;;;;;5134073;28;20047;-70
2023/09/22 07:06:09;;;;;;;64.22;16.50;;;;;;;;;;5116617;28;20047;-70
2023/09/22 07:08:35;;;;;;;61.13;16.00;;;;;;;;;;5133900;28;20085;-70
2023/09/22 07:11:05;;;;;;;55.88;16.25;;;;;;;;;;5133832;28;20043;-70
2023/09/22 07:13:31;;;;;;;50.33;14.73;;;;;;;;;;5098510;28;20047;-68
2023/09/22 07:15:58;;;;;;;50.15;14.95;;;;;;;;;;5115630;28;20043;-70
2023/09/22 07:18:25;;;;;;;54.88;15.80;;;;;;;;;;5134002;28;20045;-70
2023/09/22 07:20:51;;;;;;;60.53;15.63;;;;;;;;;;5134859;28;20471;-71
2023/09/22 07:23:17;;;;;;;60.80;16.08;;;;;;;;;;5133778;28;20047;-70
2023/09/22 07:25:43;;;;;;;59.28;15.98;;;;;;;;;;5115036;28;20047;-70
2023/09/22 07:28:11;;;;;;;54.30;14.98;;;;;;;;;;5119740;27;20079;-70
2023/09/22 07:30:37;;;;;;;51.72;14.95;;;;;;;;;;5137477;27;20058;-69
2023/09/22 07:33:03;;;;;;;56.03;15.38;;;;;;;;;;5119384;27;20043;-69
2023/09/22 07:35:29;;;;;;;48.65;15.02;;;;;;;;;;5118904;27;20047;-70
2023/09/22 07:37:56;;;;;;;49.70;13.98;;;;;;;;;;5119700;27;20122;-70
2023/09/22 07:40:22;;;;;;;46.00;15.00;;;;;;;;;;5137187;27;20126;-69
2023/09/22 07:42:48;;;;;;;48.80;13.30;;;;;;;;;;5119644;27;20377;-69
2023/09/22 07:45:14;;;;;;;50.93;13.40;;;;;;;;;;5102085;27;20047;-69
2023/09/22 07:47:40;;;;;;;37.70;12.40;;;;;;;;;;5101730;27;20083;-70
2023/09/22 07:50:06;;;;;;;43.10;13.30;;;;;;;;;;5118888;27;20054;-70
2023/09/22 07:52:34;;;;;;;40.80;13.20;;;;;;;;;;5137044;27;20095;-70
2023/09/22 07:55:03;;;;;;;41.08;11.48;;;;;;;;;;5137040;27;20054;-70
2023/09/22 07:57:30;;;;;;;37.53;10.85;;;;;;;;;;5136840;27;20452;-71
2023/09/22 07:59:56;;;;;;;43.80;12.20;;;;;;;;;;5136763;27;20059;-69
2023/09/22 08:02:23;;;;;;;31.50;11.25;;;;;;;;;;5118343;27;20053;-70
2023/09/22 08:04:49;;;;;;;33.55;10.90;;;;;;;;;;5137085;27;20043;-71
2023/09/22 08:07:15;;;;;;;32.38;10.82;;;;;;;;;;5136919;27;20047;-71
2023/09/22 08:09:41;;;;;;;32.73;10.17;;;;;;;;;;5118833;27;20061;-70
2023/09/22 08:12:08;;;;;;;26.20;9.82;;;;;;;;;;5118686;27;20094;-71
2023/09/22 08:14:35;;;;;;;;;;;;;;;;;;5119616;27;20391;-71
2023/09/22 08:17:01;;;;;;;;;;;;;;;;;;5120199;27;20264;-72
2023/09/22 08:19:27;;;;;;;21.85;7.60;;;;;;;;;;5136818;27;20006;-69
2023/09/22 08:21:53;;;;;;;21.92;8.38;;;;;;;;;;5136515;27;20050;-69
2023/09/22 08:24:20;;;;;;;22.35;8.52;;;;;;;;;;5136331;27;20043;-71
2023/09/22 08:26:46;;;;;;;29.30;9.13;;;15.10;99.90;;;;;;5101605;27;20141;-71
2023/09/22 08:29:11;;;;;;;26.02;9.30;;;15.30;99.90;;;;;;5136360;27;20047;-71
2023/09/22 08:31:37;;;;;;;29.67;9.27;;;15.40;99.90;;;;;;5101473;27;20043;-70
2023/09/22 08:34:03;;;;;;;23.38;7.50;;;15.60;99.90;;;;;;5117723;27;20483;-69
2023/09/22 08:36:30;;;;;;;20.88;6.80;;;;;;;;;;5136182;27;20394;-71
2023/09/22 08:38:56;;;;;;;18.35;5.55;;;;;;;;;;5135946;27;20039;-67
2023/09/22 08:41:26;;;;;;;16.60;5.63;;;15.60;99.90;;;;;;5136319;27;20086;-67
2023/09/22 08:43:53;;;;;;;13.05;5.05;;;15.70;99.90;;;;;;5136477;27;20047;-72
2023/09/22 08:46:19;;;;;;;13.25;4.68;;;15.60;99.90;;;;;;5100956;27;20126;-71
2023/09/22 08:48:45;;;;;;;16.40;5.20;;;15.70;99.90;;;;;;5136147;27;20131;-69
2023/09/22 08:51:11;;;;;;;14.85;5.30;;;15.80;99.90;;;;;;5117833;27;20126;-70
2023/09/22 08:53:36;;;;;;;12.93;5.03;;;15.70;99.90;;;;;;5100770;27;20039;-70
2023/09/22 08:56:04;;;;;;;16.08;4.90;;;15.70;99.90;;;;;;5118222;27;20046;-68
2023/09/22 08:58:30;;;;;;;13.50;4.85;;;15.70;99.90;;;;;;5135705;27;20085;-70
2023/09/22 09:00:55;;;;;;;12.15;4.70;;;15.60;99.90;;;;;;5135367;27;20418;-71
2023/09/22 09:03:21;;;;;;;14.00;5.35;;;15.60;99.90;;;;;;5135828;27;20050;-70
2023/09/22 09:05:49;;;;;;;12.83;4.73;;;15.80;99.90;;;;;;5118015;27;20122;-72
2023/09/22 09:08:19;;;;;;;10.15;3.70;;;15.90;99.90;;;;;;5135375;27;20400;-69
2023/09/22 09:10:47;;;;;;;11.80;3.28;;;;;;;;;;5118214;27;20090;-70
2023/09/22 09:13:16;;;;;;;9.50;2.25;;;;;;;;;;5117924;27;20052;-70
2023/09/22 09:15:49;;;;;;;10.48;3.00;;;;;;;;;;5100281;27;20501;-71
2023/09/22 09:18:19;;;;;;;7.88;2.53;;;;;;;;;;5100127;27;20051;-70
2023/09/22 09:21:05;;;;;;;7.57;2.72;;;16.10;99.90;;;;;;5135509;27;20063;-70
2023/09/22 09:23:31;;;;;;;7.90;2.40;;;16.10;99.90;;;;;;5135896;27;20104;-68
2023/09/22 09:25:57;;;;;;;9.53;2.63;;;16.00;99.90;;;;;;5135161;27;20051;-71
2023/09/22 09:28:24;;;;;;;9.27;2.70;;;15.90;99.90;;;;;;5117256;27;20043;-70
2023/09/22 09:30:52;;;;;;;7.43;3.10;;;15.90;99.90;;;;;;5117019;27;20467;-68
2023/09/22 09:33:23;;;;;;;7.05;2.72;;;15.90;99.90;;;;;;5135112;27;20039;-68
2023/09/22 09:35:49;;;;;;;10.30;3.55;;;16.00;99.90;;;;;;5135880;27;20047;-69
2023/09/22 09:38:16;;;;;;;10.45;3.38;;;16.10;99.90;;;;;;5134925;27;20482;-69
2023/09/22 09:40:42;;;;;;;11.98;3.28;;;16.10;99.90;;;;;;5134988;27;20506;-69
2023/09/22 09:43:11;;;;;;;15.23;2.80;;;16.10;99.90;;;;;;5134921;27;20043;-71
2023/09/22 09:45:47;;;;;;;10.27;2.30;;;15.90;99.90;;;;;;5134840;27;20074;-68
2023/09/22 09:48:16;;;;;;;8.18;2.25;;;;;;;;;;5135015;27;20039;-69
2023/09/22 09:50:51;;;;;;;9.13;2.67;;;16.10;99.90;;;;;;5134464;27;20039;-71
2023/09/22 09:53:36;;;;;;;8.65;2.85;;;16.10;99.90;;;;;;5116010;27;20563;-68
2023/09/22 09:56:03;;;;;;;9.27;2.97;;;16.30;99.90;;;;;;5134655;27;20050;-71
2023/09/22 09:58:34;;;;;;;8.77;2.90;;;;;;;;;;5134771;27;20040;-69
2023/09/22 10:01:07;;;;;;;14.13;3.15;;;;;;;;;;5116871;27;20104;-68
2023/09/22 10:03:35;;;;;;;15.35;2.65;;;;;;;;;;5116447;27;20368;-69
2023/09/22 10:06:02;;;;;;;8.98;2.72;;;;;;;;;;5134485;27;20051;-68
2023/09/22 10:08:28;;;;;;;8.80;2.30;;;17.00;99.90;;;;;;5134991;27;20054;-69
2023/09/22 10:10:59;;;;;;;8.18;2.72;;;17.00;99.90;;;;;;5134527;27;20043;-68
2023/09/22 10:13:25;;;;;;;10.63;2.60;;;17.00;99.90;;;;;;5116682;27;20047;-67
2023/09/22 10:15:58;;;;;;;7.65;2.60;;;17.30;99.90;;;;;;5134919;27;20051;-69
2023/09/22 10:18:45;;;;;;;6.07;2.40;;;;;;;;;;5133835;27;20102;-71
2023/09/22 10:21:38;;;;;;;9.07;2.70;;;17.30;99.90;;;;;;5133902;27;20495;-67
2023/09/22 10:24:14;;;;;;;10.18;2.70;;;;;;;;;;5117046;28;20055;-72
2023/09/22 10:26:56;;;;;;;8.45;1.98;;;;;;;;;;5115979;28;20047;-68
2023/09/22 10:29:34;;;;;;;6.00;2.20;;;;;;;;;;5134156;28;20115;-68
2023/09/22 10:32:19;;;;;;;11.10;2.20;;;;;;;;;;5116364;28;20047;-66
2023/09/22 10:34:53;;;;;;;7.82;2.17;;;;;;;;;;5134267;28;20448;-66
2023/09/22 10:37:20;;;;;;;12.07;1.80;;;;;;;;;;5115943;28;20099;-67
2023/09/22 10:39:46;;;;;;;;;;;;;;;;;;5115864;28;20043;-67
2023/09/22 10:42:12;;;;;;;6.10;1.55;;;;;;;;;;5134970;28;20023;-68
2023/09/22 10:44:58;;;;;;;8.02;1.52;;;;;;;;;;5135006;28;20050;-69
2023/09/22 10:47:38;;;;;;;8.70;1.83;;;16.70;99.90;;;;;;5134123;28;20051;-69
2023/09/22 10:50:17;;;;;;;5.85;1.52;;;16.60;99.90;;;;;;5115315;28;20032;-68
2023/09/22 10:53:09;;;;;;;5.35;1.52;;;16.70;99.90;;;;;;5115391;28;20082;-67
2023/09/22 10:55:40;;;;;;;4.97;1.27;;;16.80;99.90;;;;;;5130131;28;20087;-67
2023/09/22 10:58:18;;;;;;;5.20;1.55;;;17.00;99.90;;;;;;5133994;28;20043;-68
2023/09/22 11:01:11;;;;;;;11.77;2.03;;;17.10;99.90;;;;;;5134164;27;20048;-68
2023/09/22 11:03:37;;;;;;;8.65;1.95;;;17.20;99.90;;;;;;5135062;27;20074;-67
2023/09/22 11:06:06;;;;;;;7.07;1.80;;;17.30;99.90;;;;;;5119903;27;20397;-68
2023/09/22 11:08:36;;;;;;;7.88;2.30;;;17.40;99.90;;;;;;5138263;27;20122;-67
2023/09/22 11:11:03;;;;;;;11.55;2.67;;;17.40;99.90;;;;;;5119531;27;20043;-67
2023/09/22 11:13:28;;;;;;;8.75;2.10;;;17.40;99.90;;;;;;5103407;27;20070;-67
2023/09/22 11:15:59;;;;;;;7.33;2.43;;;17.30;99.90;;;;;;5137823;27;20043;-67
2023/09/22 11:18:33;;;;;;;8.30;2.22;;;17.20;99.90;;;;;;5137621;27;20047;-67
2023/09/22 11:21:05;;;;;;;8.45;2.38;;;17.30;99.90;;;;;;5120189;27;20058;-67
2023/09/22 11:23:35;;;;;;;8.55;2.60;;;17.40;99.90;;;;;;5138424;27;20054;-67
2023/09/22 11:26:07;;;;;;;12.25;2.55;;;17.90;99.90;;;;;;5138218;27;20108;-68
2023/09/22 11:28:34;;;;;;;8.55;2.55;;;17.60;99.90;;;;;;5103108;27;20089;-68
2023/09/22 11:31:26;;;;;;;;;;;17.60;99.90;;;;;;5138251;27;20387;-67
2023/09/22 11:34:03;;;;;;;6.95;2.45;;;17.60;99.90;;;;;;5135225;27;20243;-68
2023/09/22 11:36:48;;;;;;;8.68;2.55;;;18.00;99.90;;;;;;5137338;27;20089;-67
2023/09/22 11:39:27;;;;;;;6.85;2.13;;;18.00;99.90;;;;;;5137376;27;20043;-67
2023/09/22 11:41:56;;;;;;;8.52;2.38;;;18.00;99.90;;;;;;5137277;27;20406;-69
2023/09/22 11:44:22;;;;;;;8.25;2.45;;;18.00;99.90;;;;;;5137643;27;20108;-67
2023/09/22 11:46:48;;;;;;;7.95;2.33;;;17.90;99.90;;;;;;5136946;27;20058;-67
2023/09/22 11:49:14;;;;;;;7.15;1.85;;;17.70;99.90;;;;;;5118779;27;20039;-67
2023/09/22 11:51:40;;;;;;;10.17;2.00;;;17.70;99.90;;;;;;5118608;27;20096;-67
2023/09/22 11:54:07;;;;;;;7.43;2.03;;;17.60;99.90;;;;;;5137066;27;20047;-67
2023/09/22 11:56:33;;;;;;;4.38;1.55;;;17.80;99.90;;;;;;5136907;27;20047;-67
2023/09/22 11:59:08;;;;;;;8.70;1.90;;;17.80;99.90;;;;;;5136850;27;20069;-67
2023/09/22 12:01:35;;;;;;;6.85;2.05;;;18.00;99.90;;;;;;5136865;27;20112;-69
2023/09/22 12:04:01;;;;;;;;;;;18.00;99.90;;;;;;5137826;27;20104;-68
2023/09/22 12:06:26;;;;;;;5.30;1.30;;;18.20;99.90;;;;;;5118702;27;19919;-68
2023/09/22 12:08:52;;;;;;;7.13;1.90;;;18.30;99.90;;;;;;5101518;27;20360;-66
2023/09/22 12:11:24;;;;;;;5.97;2.00;;;18.30;99.90;;;;;;5101349;27;20051;-69
2023/09/22 12:13:50;;;;;;;7.80;2.15;;;18.30;99.90;;;;;;5119084;27;20047;-68
2023/09/22 12:16:16;;;;;;;6.53;2.10;;;18.30;99.90;;;;;;5101720;27;20131;-68
2023/09/22 12:18:41;;;;;;;5.97;2.13;;;18.20;99.90;;;;;;5118065;27;20046;-68
2023/09/22 12:21:07;;;;;;;6.57;1.90;;;18.30;99.90;;;;;;5137165;27;20158;-68
2023/09/22 12:23:35;;;;;;;8.15;1.90;;;18.40;99.90;;;;;;5118249;27;20047;-69
2023/09/22 12:26:01;;;;;;;7.25;1.67;;;18.20;99.90;;;;;;5136403;27;20047;-68
2023/09/22 12:28:28;;;;;;;9.13;2.47;;;18.30;99.90;;;;;;5118814;27;20135;-68
2023/09/22 12:30:54;;;;;;;7.72;1.83;;;18.20;99.90;;;;;;5084269;27;20047;-67
2023/09/22 12:33:20;;;;;;;6.53;1.80;;;18.20;99.90;;;;;;5117662;27;20498;-68
2023/09/22 12:35:50;;;;;;;6.50;1.73;;;18.20;99.90;;;;;;5136299;27;20043;-67
2023/09/22 12:38:16;;;;;;;7.95;1.98;;;18.20;99.90;;;;;;5117913;27;20135;-69
2023/09/22 12:40:43;;;;;;;6.78;2.08;;;18.10;99.90;;;;;;5117968;27;20447;-67
2023/09/22 12:43:09;;;;;;;6.57;1.60;;;18.10;99.90;;;;;;5117495;27;20506;-67
2023/09/22 12:45:35;;;;;;;3.10;1.35;;;18.20;99.90;;;;;;5118706;27;20367;-67
2023/09/22 12:48:01;;;;;;;5.30;1.40;;;18.30;99.90;;;;;;5117754;27;20254;-68
2023/09/22 12:50:27;;;;;;;11.30;2.23;;;18.20;99.90;;;;;;5135902;27;20054;-69
2023/09/22 12:52:54;;;;;;;7.07;1.70;;;18.20;99.90;;;;;;5117771;27;20058;-68
2023/09/22 12:55:19;;;;;;;5.85;1.90;;;18.10;99.90;;;;;;5135801;27;20126;-68
2023/09/22 12:57:45;;;;;;;5.17;1.83;;;18.00;99.90;;;;;;5135989;27;20119;-68
2023/09/22 13:00:11;;;;;;;10.20;2.57;;;17.80;99.90;;;;;;5135810;27;20043;-68
2023/09/22 13:02:40;;;;;;;8.27;2.40;;;17.70;99.90;;;;;;5118403;27;20447;-67
2023/09/22 13:05:07;;;;;;;6.78;2.20;;;17.70;99.90;;;;;;5117562;27;20046;-68
2023/09/22 13:07:33;;;;;;;6.85;2.45;;;17.50;99.90;;;;;;5136283;27;20364;-67
2023/09/22 13:10:03;;;;;;;6.30;2.20;;;17.60;99.90;;;;;;5135879;27;20476;-68
2023/09/22 13:12:29;;;;;;;5.38;2.30;;;17.60;99.90;;;;;;5117093;27;20360;-68
2023/09/22 13:14:55;;;;;;;7.60;2.30;;;17.60;99.90;;;;;;5135721;27;20433;-67
2023/09/22 13:17:21;;;;;;;6.23;2.30;;;17.60;99.90;;;;;;5117327;27;20047;-68
2023/09/22 13:19:46;;;;;;;5.77;2.47;;;17.60;99.90;;;;;;5116756;27;20081;-68
2023/09/22 13:22:14;;;;;;;6.22;1.95;;;17.60;99.90;;;;;;5135037;27;20281;-66
2023/09/22 13:24:40;;;;;;;6.88;2.08;;;17.70;99.90;;;;;;5116146;27;20176;-67
2023/09/22 13:27:06;;;;;;;9.73;2.70;;;17.70;99.90;;;;;;5117355;27;20062;-67
2023/09/22 13:29:31;;;;;;;8.13;2.30;;;17.70;99.90;;;;;;5117306;27;20463;-68
2023/09/22 13:31:57;;;;;;;6.15;2.03;;;17.70;99.90;;;;;;5117203;27;20047;-67
2023/09/22 13:34:23;;;;;;;7.50;2.30;;;16.50;99.90;;;;;;5117070;27;20178;-68
2023/09/22 13:36:49;;;;;;;5.13;2.08;;;17.70;99.90;;;;;;5135315;27;20147;-68
2023/09/22 13:39:15;;;;;;;9.60;2.00;;;17.70;99.90;;;;;;5135015;27;20039;-67
2023/09/22 13:41:42;;;;;;;8.23;1.83;;;17.70;99.90;;;;;;5099532;27;20788;-68
2023/09/22 13:44:10;;;;;;;8.77;1.95;;;17.70;99.90;;;;;;5116640;27;20082;-68
2023/09/22 13:46:36;;;;;;;6.82;2.00;;;17.80;99.90;;;;;;5116782;27;20069;-69
2023/09/22 13:49:03;;;;;;;10.75;2.22;;;17.80;99.90;;;;;;5134957;27;20088;-69